sensor_id;sensor_type;location;lat;lon;timestamp;P1;durP1;ratioP1;P2;durP2;ratioP2
70337;SDS011;57757;53.198;19.646;2023-07-02T00:01:54;16.10;;;8.60;;
70337;SDS011;57757;53.198;19.646;2023-07-02T00:04:21;15.00;;;8.70;;
70337;SDS011;57757;53.198;19.646;2023-07-02T00:06:47;15.80;;;8.90;;
70337;SDS011;57757;53.198;19.646;2023-07-02T00:09:14;15.90;;;8.50;;
70337;SDS011;57757;53.198;19.646;2023-07-02T00:11:42;16.40;;;8.70;;
70337;SDS011;57757;53.198;19.646;2023-07-02T00:14:11;17.10;;;8.60;;
70337;SDS011;57757;53.198;19.646;2023-07-02T00:16:41;16.20;;;9.00;;
70337;SDS011;57757;53.198;19.646;2023-07-02T00:19:09;16.40;;;8.50;;
70337;SDS011;57757;53.198;19.646;2023-07-02T00:21:36;16.20;;;8.70;;
70337;SDS011;57757;53.198;19.646;2023-07-02T00:24:03;18.40;;;8.40;;
70337;SDS011;57757;53.198;19.646;2023-07-02T00:26:30;14.90;;;8.10;;
70337;SDS011;57757;53.198;19.646;2023-07-02T00:28:56;16.60;;;8.80;;
70337;SDS011;57757;53.198;19.646;2023-07-02T00:31:23;15.20;;;8.70;;
70337;SDS011;57757;53.198;19.646;2023-07-02T00:33:50;17.30;;;9.60;;
70337;SDS011;57757;53.198;19.646;2023-07-02T00:36:17;15.60;;;9.10;;
70337;SDS011;57757;53.198;19.646;2023-07-02T00:38:47;17.70;;;9.40;;
70337;SDS011;57757;53.198;19.646;2023-07-02T00:41:15;16.10;;;9.10;;
70337;SDS011;57757;53.198;19.646;2023-07-02T00:43:41;14.90;;;8.90;;
70337;SDS011;57757;53.198;19.646;2023-07-02T00:48:44;15.50;;;8.90;;
70337;SDS011;57757;53.198;19.646;2023-07-02T00:51:15;16.00;;;8.90;;
70337;SDS011;57757;53.198;19.646;2023-07-02T00:53:49;16.40;;;9.30;;
70337;SDS011;57757;53.198;19.646;2023-07-02T00:56:16;19.90;;;9.10;;
70337;SDS011;57757;53.198;19.646;2023-07-02T00:58:43;16.70;;;8.90;;
70337;SDS011;57757;53.198;19.646;2023-07-02T01:01:14;19.20;;;9.40;;
70337;SDS011;57757;53.198;19.646;2023-07-02T01:06:32;15.90;;;8.50;;
70337;SDS011;57757;53.198;19.646;2023-07-02T01:09:01;17.20;;;8.90;;
70337;SDS011;57757;53.198;19.646;2023-07-02T01:11:32;17.60;;;9.50;;
70337;SDS011;57757;53.198;19.646;2023-07-02T01:14:04;15.50;;;9.00;;
70337;SDS011;57757;53.198;19.646;2023-07-02T01:16:34;18.00;;;9.60;;
70337;SDS011;57757;53.198;19.646;2023-07-02T01:19:04;15.90;;;9.10;;
70337;SDS011;57757;53.198;19.646;2023-07-02T01:21:36;17.50;;;9.40;;
70337;SDS011;57757;53.198;19.646;2023-07-02T01:24:02;16.40;;;9.40;;
70337;SDS011;57757;53.198;19.646;2023-07-02T01:26:32;17.00;;;9.30;;
70337;SDS011;57757;53.198;19.646;2023-07-02T01:31:46;16.70;;;9.90;;
70337;SDS011;57757;53.198;19.646;2023-07-02T01:34:13;18.30;;;9.30;;
70337;SDS011;57757;53.198;19.646;2023-07-02T01:36:40;15.80;;;9.00;;
70337;SDS011;57757;53.198;19.646;2023-07-02T01:39:06;17.10;;;9.20;;
70337;SDS011;57757;53.198;19.646;2023-07-02T01:44:19;16.50;;;8.70;;
70337;SDS011;57757;53.198;19.646;2023-07-02T01:46:46;16.10;;;8.70;;
70337;SDS011;57757;53.198;19.646;2023-07-02T01:49:16;18.80;;;9.80;;
70337;SDS011;57757;53.198;19.646;2023-07-02T01:51:49;17.40;;;9.20;;
70337;SDS011;57757;53.198;19.646;2023-07-02T01:54:17;16.00;;;9.10;;
70337;SDS011;57757;53.198;19.646;2023-07-02T01:56:44;16.90;;;9.50;;
70337;SDS011;57757;53.198;19.646;2023-07-02T01:59:11;18.50;;;9.20;;
70337;SDS011;57757;53.198;19.646;2023-07-02T02:01:37;15.20;;;9.10;;
70337;SDS011;57757;53.198;19.646;2023-07-02T02:04:07;16.60;;;9.20;;
70337;SDS011;57757;53.198;19.646;2023-07-02T02:06:34;16.10;;;9.50;;
70337;SDS011;57757;53.198;19.646;2023-07-02T02:09:01;16.50;;;9.00;;
70337;SDS011;57757;53.198;19.646;2023-07-02T02:11:30;17.20;;;9.60;;
70337;SDS011;57757;53.198;19.646;2023-07-02T02:13:57;17.30;;;9.90;;
70337;SDS011;57757;53.198;19.646;2023-07-02T02:16:23;17.80;;;9.80;;
70337;SDS011;57757;53.198;19.646;2023-07-02T02:18:50;17.60;;;9.50;;
70337;SDS011;57757;53.198;19.646;2023-07-02T02:21:19;20.70;;;10.30;;
70337;SDS011;57757;53.198;19.646;2023-07-02T02:23:46;17.10;;;9.90;;
70337;SDS011;57757;53.198;19.646;2023-07-02T02:26:12;17.70;;;9.80;;
70337;SDS011;57757;53.198;19.646;2023-07-02T02:28:41;18.30;;;10.00;;
70337;SDS011;57757;53.198;19.646;2023-07-02T02:31:07;18.60;;;10.00;;
70337;SDS011;57757;53.198;19.646;2023-07-02T02:33:34;19.40;;;10.00;;
70337;SDS011;57757;53.198;19.646;2023-07-02T02:36:01;17.00;;;9.80;;
70337;SDS011;57757;53.198;19.646;2023-07-02T02:38:28;17.70;;;9.60;;
70337;SDS011;57757;53.198;19.646;2023-07-02T02:40:54;17.30;;;9.70;;
70337;SDS011;57757;53.198;19.646;2023-07-02T02:43:20;18.70;;;10.50;;
70337;SDS011;57757;53.198;19.646;2023-07-02T02:45:46;18.10;;;10.70;;
70337;SDS011;57757;53.198;19.646;2023-07-02T02:48:13;17.70;;;9.70;;
70337;SDS011;57757;53.198;19.646;2023-07-02T02:50:39;16.50;;;9.30;;
70337;SDS011;57757;53.198;19.646;2023-07-02T02:53:09;19.50;;;9.00;;
70337;SDS011;57757;53.198;19.646;2023-07-02T02:55:36;17.10;;;9.50;;
70337;SDS011;57757;53.198;19.646;2023-07-02T02:58:02;16.30;;;9.50;;
70337;SDS011;57757;53.198;19.646;2023-07-02T03:00:28;15.40;;;8.80;;
70337;SDS011;57757;53.198;19.646;2023-07-02T03:02:55;16.00;;;9.50;;
70337;SDS011;57757;53.198;19.646;2023-07-02T03:05:22;17.90;;;10.40;;
70337;SDS011;57757;53.198;19.646;2023-07-02T03:07:48;18.10;;;11.70;;
70337;SDS011;57757;53.198;19.646;2023-07-02T03:10:16;16.70;;;10.30;;
70337;SDS011;57757;53.198;19.646;2023-07-02T03:12:43;15.90;;;9.50;;
70337;SDS011;57757;53.198;19.646;2023-07-02T03:15:09;18.70;;;10.40;;
70337;SDS011;57757;53.198;19.646;2023-07-02T03:17:36;17.00;;;10.50;;
70337;SDS011;57757;53.198;19.646;2023-07-02T03:20:02;18.60;;;9.80;;
70337;SDS011;57757;53.198;19.646;2023-07-02T03:22:33;16.90;;;9.50;;
70337;SDS011;57757;53.198;19.646;2023-07-02T03:25:00;20.50;;;10.90;;
70337;SDS011;57757;53.198;19.646;2023-07-02T03:27:26;17.80;;;11.70;;
70337;SDS011;57757;53.198;19.646;2023-07-02T03:29:52;15.80;;;8.60;;
70337;SDS011;57757;53.198;19.646;2023-07-02T03:32:18;16.10;;;8.60;;
70337;SDS011;57757;53.198;19.646;2023-07-02T03:34:45;14.70;;;8.30;;
70337;SDS011;57757;53.198;19.646;2023-07-02T03:37:11;14.30;;;8.20;;
70337;SDS011;57757;53.198;19.646;2023-07-02T03:39:37;16.70;;;7.70;;
70337;SDS011;57757;53.198;19.646;2023-07-02T03:42:04;13.50;;;7.90;;
70337;SDS011;57757;53.198;19.646;2023-07-02T03:44:31;16.20;;;8.60;;
70337;SDS011;57757;53.198;19.646;2023-07-02T03:46:57;13.90;;;8.20;;
70337;SDS011;57757;53.198;19.646;2023-07-02T03:49:23;15.90;;;8.50;;
70337;SDS011;57757;53.198;19.646;2023-07-02T03:51:49;14.30;;;8.20;;
70337;SDS011;57757;53.198;19.646;2023-07-02T03:54:15;15.80;;;7.50;;
70337;SDS011;57757;53.198;19.646;2023-07-02T03:56:41;15.00;;;7.90;;
70337;SDS011;57757;53.198;19.646;2023-07-02T03:59:07;14.50;;;7.70;;
70337;SDS011;57757;53.198;19.646;2023-07-02T04:01:33;13.90;;;8.10;;
70337;SDS011;57757;53.198;19.646;2023-07-02T04:03:59;14.60;;;7.90;;
70337;SDS011;57757;53.198;19.646;2023-07-02T04:06:25;16.10;;;8.30;;
70337;SDS011;57757;53.198;19.646;2023-07-02T04:08:51;13.60;;;7.70;;
70337;SDS011;57757;53.198;19.646;2023-07-02T04:11:17;17.10;;;7.70;;
70337;SDS011;57757;53.198;19.646;2023-07-02T04:13:43;15.10;;;7.60;;
70337;SDS011;57757;53.198;19.646;2023-07-02T04:16:09;12.70;;;7.10;;
70337;SDS011;57757;53.198;19.646;2023-07-02T04:18:35;14.00;;;7.80;;
70337;SDS011;57757;53.198;19.646;2023-07-02T04:21:02;12.60;;;7.00;;
70337;SDS011;57757;53.198;19.646;2023-07-02T04:23:28;15.60;;;7.10;;
70337;SDS011;57757;53.198;19.646;2023-07-02T04:25:55;12.30;;;6.50;;
70337;SDS011;57757;53.198;19.646;2023-07-02T04:28:41;14.10;;;6.50;;
70337;SDS011;57757;53.198;19.646;2023-07-02T04:31:07;12.90;;;6.40;;
70337;SDS011;57757;53.198;19.646;2023-07-02T04:33:33;12.20;;;6.20;;
70337;SDS011;57757;53.198;19.646;2023-07-02T04:36:02;11.70;;;6.00;;
70337;SDS011;57757;53.198;19.646;2023-07-02T04:38:28;11.50;;;6.20;;
70337;SDS011;57757;53.198;19.646;2023-07-02T04:40:55;10.70;;;5.40;;
70337;SDS011;57757;53.198;19.646;2023-07-02T04:43:23;9.70;;;4.90;;
70337;SDS011;57757;53.198;19.646;2023-07-02T04:45:49;11.40;;;4.90;;
70337;SDS011;57757;53.198;19.646;2023-07-02T04:48:15;12.30;;;5.10;;
70337;SDS011;57757;53.198;19.646;2023-07-02T04:50:41;10.70;;;4.70;;
70337;SDS011;57757;53.198;19.646;2023-07-02T04:53:07;9.10;;;4.50;;
70337;SDS011;57757;53.198;19.646;2023-07-02T04:55:33;11.00;;;4.80;;
70337;SDS011;57757;53.198;19.646;2023-07-02T04:57:59;10.10;;;4.10;;
70337;SDS011;57757;53.198;19.646;2023-07-02T05:00:25;9.50;;;4.10;;
70337;SDS011;57757;53.198;19.646;2023-07-02T05:02:51;10.80;;;4.00;;
70337;SDS011;57757;53.198;19.646;2023-07-02T05:05:17;8.80;;;4.30;;
70337;SDS011;57757;53.198;19.646;2023-07-02T05:07:44;8.00;;;4.10;;
70337;SDS011;57757;53.198;19.646;2023-07-02T05:10:10;8.20;;;3.70;;
70337;SDS011;57757;53.198;19.646;2023-07-02T05:12:36;7.60;;;3.60;;
70337;SDS011;57757;53.198;19.646;2023-07-02T05:15:02;8.40;;;3.50;;
70337;SDS011;57757;53.198;19.646;2023-07-02T05:17:28;9.50;;;3.70;;
70337;SDS011;57757;53.198;19.646;2023-07-02T05:19:54;11.20;;;3.30;;
70337;SDS011;57757;53.198;19.646;2023-07-02T05:22:20;9.10;;;3.30;;
70337;SDS011;57757;53.198;19.646;2023-07-02T05:24:46;7.40;;;3.20;;
70337;SDS011;57757;53.198;19.646;2023-07-02T05:27:12;6.90;;;3.40;;
70337;SDS011;57757;53.198;19.646;2023-07-02T05:29:38;9.10;;;3.50;;
70337;SDS011;57757;53.198;19.646;2023-07-02T05:32:04;7.80;;;3.10;;
70337;SDS011;57757;53.198;19.646;2023-07-02T05:34:33;8.20;;;3.30;;
70337;SDS011;57757;53.198;19.646;2023-07-02T05:36:59;9.00;;;3.10;;
70337;SDS011;57757;53.198;19.646;2023-07-02T05:39:25;8.00;;;3.10;;
70337;SDS011;57757;53.198;19.646;2023-07-02T05:41:51;8.20;;;3.40;;
70337;SDS011;57757;53.198;19.646;2023-07-02T05:44:17;9.50;;;3.20;;
70337;SDS011;57757;53.198;19.646;2023-07-02T05:46:44;7.20;;;2.80;;
70337;SDS011;57757;53.198;19.646;2023-07-02T05:49:10;9.00;;;5.60;;
70337;SDS011;57757;53.198;19.646;2023-07-02T05:51:36;9.40;;;3.60;;
70337;SDS011;57757;53.198;19.646;2023-07-02T05:54:02;9.00;;;3.40;;
70337;SDS011;57757;53.198;19.646;2023-07-02T05:56:28;7.10;;;3.40;;
70337;SDS011;57757;53.198;19.646;2023-07-02T05:58:55;11.00;;;4.80;;
70337;SDS011;57757;53.198;19.646;2023-07-02T06:01:21;11.00;;;5.00;;
70337;SDS011;57757;53.198;19.646;2023-07-02T06:03:49;13.00;;;5.30;;
70337;SDS011;57757;53.198;19.646;2023-07-02T06:06:16;11.60;;;4.90;;
70337;SDS011;57757;53.198;19.646;2023-07-02T06:08:42;9.10;;;3.70;;
70337;SDS011;57757;53.198;19.646;2023-07-02T06:11:09;23.70;;;8.30;;
70337;SDS011;57757;53.198;19.646;2023-07-02T06:13:36;19.90;;;7.20;;
70337;SDS011;57757;53.198;19.646;2023-07-02T06:16:02;17.10;;;7.90;;
70337;SDS011;57757;53.198;19.646;2023-07-02T06:18:28;9.70;;;4.40;;
70337;SDS011;57757;53.198;19.646;2023-07-02T06:20:54;12.00;;;4.20;;
70337;SDS011;57757;53.198;19.646;2023-07-02T06:23:20;13.80;;;5.40;;
70337;SDS011;57757;53.198;19.646;2023-07-02T06:25:46;19.60;;;7.60;;
70337;SDS011;57757;53.198;19.646;2023-07-02T06:28:12;17.60;;;7.40;;
70337;SDS011;57757;53.198;19.646;2023-07-02T06:30:38;15.20;;;6.50;;
70337;SDS011;57757;53.198;19.646;2023-07-02T06:33:04;10.90;;;4.20;;
70337;SDS011;57757;53.198;19.646;2023-07-02T06:35:30;12.50;;;5.10;;
70337;SDS011;57757;53.198;19.646;2023-07-02T06:37:56;13.20;;;6.30;;
70337;SDS011;57757;53.198;19.646;2023-07-02T06:40:22;15.50;;;6.40;;
70337;SDS011;57757;53.198;19.646;2023-07-02T06:42:49;12.30;;;5.70;;
70337;SDS011;57757;53.198;19.646;2023-07-02T06:45:15;14.80;;;6.90;;
70337;SDS011;57757;53.198;19.646;2023-07-02T06:47:41;14.40;;;6.90;;
70337;SDS011;57757;53.198;19.646;2023-07-02T06:50:07;12.60;;;5.60;;
70337;SDS011;57757;53.198;19.646;2023-07-02T06:52:33;13.60;;;6.10;;
70337;SDS011;57757;53.198;19.646;2023-07-02T06:54:59;18.70;;;6.80;;
70337;SDS011;57757;53.198;19.646;2023-07-02T06:57:25;15.40;;;6.60;;
70337;SDS011;57757;53.198;19.646;2023-07-02T06:59:51;12.00;;;6.50;;
70337;SDS011;57757;53.198;19.646;2023-07-02T07:02:17;16.80;;;6.70;;
70337;SDS011;57757;53.198;19.646;2023-07-02T07:04:43;11.60;;;4.80;;
70337;SDS011;57757;53.198;19.646;2023-07-02T07:07:09;10.20;;;4.20;;
70337;SDS011;57757;53.198;19.646;2023-07-02T07:09:35;7.20;;;2.70;;
70337;SDS011;57757;53.198;19.646;2023-07-02T07:12:02;10.20;;;3.40;;
70337;SDS011;57757;53.198;19.646;2023-07-02T07:14:29;9.00;;;3.80;;
70337;SDS011;57757;53.198;19.646;2023-07-02T07:16:54;9.30;;;2.40;;
70337;SDS011;57757;53.198;19.646;2023-07-02T07:19:21;9.50;;;3.10;;
70337;SDS011;57757;53.198;19.646;2023-07-02T07:21:47;11.30;;;3.50;;
70337;SDS011;57757;53.198;19.646;2023-07-02T07:24:13;8.40;;;2.20;;
70337;SDS011;57757;53.198;19.646;2023-07-02T07:26:39;7.20;;;2.50;;
70337;SDS011;57757;53.198;19.646;2023-07-02T07:29:05;7.70;;;2.50;;
70337;SDS011;57757;53.198;19.646;2023-07-02T07:31:31;7.50;;;1.90;;
70337;SDS011;57757;53.198;19.646;2023-07-02T07:33:57;7.30;;;2.30;;
70337;SDS011;57757;53.198;19.646;2023-07-02T07:36:23;8.00;;;2.20;;
70337;SDS011;57757;53.198;19.646;2023-07-02T07:38:49;6.00;;;2.10;;
70337;SDS011;57757;53.198;19.646;2023-07-02T07:41:15;7.10;;;2.50;;
70337;SDS011;57757;53.198;19.646;2023-07-02T07:43:41;7.10;;;3.00;;
70337;SDS011;57757;53.198;19.646;2023-07-02T07:46:07;7.80;;;3.70;;
70337;SDS011;57757;53.198;19.646;2023-07-02T07:48:33;7.50;;;3.80;;
70337;SDS011;57757;53.198;19.646;2023-07-02T07:50:59;8.50;;;3.00;;
70337;SDS011;57757;53.198;19.646;2023-07-02T07:53:25;7.70;;;3.20;;
70337;SDS011;57757;53.198;19.646;2023-07-02T07:55:51;6.40;;;2.10;;
70337;SDS011;57757;53.198;19.646;2023-07-02T07:58:17;5.50;;;1.90;;
70337;SDS011;57757;53.198;19.646;2023-07-02T08:00:44;7.20;;;2.30;;
70337;SDS011;57757;53.198;19.646;2023-07-02T08:03:10;5.60;;;1.80;;
70337;SDS011;57757;53.198;19.646;2023-07-02T08:05:36;5.90;;;1.80;;
70337;SDS011;57757;53.198;19.646;2023-07-02T08:08:02;7.20;;;3.00;;
70337;SDS011;57757;53.198;19.646;2023-07-02T08:10:28;7.00;;;3.70;;
70337;SDS011;57757;53.198;19.646;2023-07-02T08:12:54;7.50;;;3.60;;
70337;SDS011;57757;53.198;19.646;2023-07-02T08:15:21;9.30;;;3.20;;
70337;SDS011;57757;53.198;19.646;2023-07-02T08:17:47;6.50;;;1.90;;
70337;SDS011;57757;53.198;19.646;2023-07-02T08:20:13;6.50;;;2.90;;
70337;SDS011;57757;53.198;19.646;2023-07-02T08:22:40;7.90;;;3.30;;
70337;SDS011;57757;53.198;19.646;2023-07-02T08:25:06;5.70;;;2.10;;
70337;SDS011;57757;53.198;19.646;2023-07-02T08:27:33;6.10;;;2.30;;
70337;SDS011;57757;53.198;19.646;2023-07-02T08:29:59;7.30;;;2.50;;
70337;SDS011;57757;53.198;19.646;2023-07-02T08:32:25;6.10;;;1.80;;
70337;SDS011;57757;53.198;19.646;2023-07-02T08:34:51;6.50;;;2.00;;
70337;SDS011;57757;53.198;19.646;2023-07-02T08:37:17;6.60;;;2.10;;
70337;SDS011;57757;53.198;19.646;2023-07-02T08:39:44;6.70;;;2.10;;
70337;SDS011;57757;53.198;19.646;2023-07-02T08:42:10;6.00;;;1.70;;
70337;SDS011;57757;53.198;19.646;2023-07-02T08:44:36;7.30;;;2.30;;
70337;SDS011;57757;53.198;19.646;2023-07-02T08:47:03;5.80;;;1.70;;
70337;SDS011;57757;53.198;19.646;2023-07-02T08:49:31;5.50;;;1.90;;
70337;SDS011;57757;53.198;19.646;2023-07-02T08:51:57;7.90;;;2.30;;
70337;SDS011;57757;53.198;19.646;2023-07-02T08:54:23;7.70;;;3.10;;
70337;SDS011;57757;53.198;19.646;2023-07-02T08:56:49;6.90;;;1.80;;
70337;SDS011;57757;53.198;19.646;2023-07-02T08:59:16;7.50;;;1.90;;
70337;SDS011;57757;53.198;19.646;2023-07-02T09:01:50;8.30;;;1.80;;
70337;SDS011;57757;53.198;19.646;2023-07-02T09:12:21;7.50;;;2.20;;
70337;SDS011;57757;53.198;19.646;2023-07-02T09:14:55;7.90;;;1.90;;
70337;SDS011;57757;53.198;19.646;2023-07-02T09:17:29;8.30;;;2.20;;
70337;SDS011;57757;53.198;19.646;2023-07-02T09:19:58;9.70;;;2.30;;
70337;SDS011;57757;53.198;19.646;2023-07-02T09:22:28;8.30;;;2.30;;
70337;SDS011;57757;53.198;19.646;2023-07-02T09:24:55;6.80;;;1.70;;
70337;SDS011;57757;53.198;19.646;2023-07-02T09:27:43;8.40;;;2.10;;
70337;SDS011;57757;53.198;19.646;2023-07-02T09:30:10;7.90;;;2.20;;
70337;SDS011;57757;53.198;19.646;2023-07-02T09:32:45;7.10;;;1.90;;
70337;SDS011;57757;53.198;19.646;2023-07-02T09:35:12;6.60;;;1.70;;
70337;SDS011;57757;53.198;19.646;2023-07-02T09:37:38;8.00;;;2.00;;
70337;SDS011;57757;53.198;19.646;2023-07-02T09:40:07;7.60;;;2.60;;
70337;SDS011;57757;53.198;19.646;2023-07-02T09:42:35;6.60;;;2.00;;
70337;SDS011;57757;53.198;19.646;2023-07-02T09:45:04;6.10;;;1.80;;
70337;SDS011;57757;53.198;19.646;2023-07-02T09:47:35;9.90;;;2.70;;
70337;SDS011;57757;53.198;19.646;2023-07-02T09:50:08;8.30;;;1.80;;
70337;SDS011;57757;53.198;19.646;2023-07-02T09:52:36;9.00;;;2.10;;
70337;SDS011;57757;53.198;19.646;2023-07-02T09:55:03;5.60;;;1.90;;
70337;SDS011;57757;53.198;19.646;2023-07-02T09:57:30;6.50;;;1.80;;
70337;SDS011;57757;53.198;19.646;2023-07-02T09:59:59;7.90;;;2.40;;
70337;SDS011;57757;53.198;19.646;2023-07-02T10:02:26;8.00;;;2.10;;
70337;SDS011;57757;53.198;19.646;2023-07-02T10:04:53;9.20;;;2.20;;
70337;SDS011;57757;53.198;19.646;2023-07-02T10:07:28;8.10;;;1.90;;
70337;SDS011;57757;53.198;19.646;2023-07-02T10:09:56;6.20;;;1.70;;
70337;SDS011;57757;53.198;19.646;2023-07-02T10:12:23;8.30;;;1.50;;
70337;SDS011;57757;53.198;19.646;2023-07-02T10:14:52;8.50;;;1.70;;
70337;SDS011;57757;53.198;19.646;2023-07-02T10:17:23;6.20;;;1.80;;
70337;SDS011;57757;53.198;19.646;2023-07-02T10:19:50;5.20;;;1.30;;
70337;SDS011;57757;53.198;19.646;2023-07-02T10:22:19;6.50;;;1.30;;
70337;SDS011;57757;53.198;19.646;2023-07-02T10:27:41;5.80;;;1.70;;
70337;SDS011;57757;53.198;19.646;2023-07-02T10:30:09;5.20;;;1.50;;
70337;SDS011;57757;53.198;19.646;2023-07-02T10:32:36;8.50;;;1.60;;
70337;SDS011;57757;53.198;19.646;2023-07-02T10:37:46;7.60;;;1.70;;
70337;SDS011;57757;53.198;19.646;2023-07-02T10:40:12;6.50;;;1.20;;
70337;SDS011;57757;53.198;19.646;2023-07-02T10:45:12;7.70;;;1.30;;
70337;SDS011;57757;53.198;19.646;2023-07-02T10:47:39;7.70;;;1.50;;
70337;SDS011;57757;53.198;19.646;2023-07-02T10:50:16;7.10;;;1.40;;
70337;SDS011;57757;53.198;19.646;2023-07-02T10:52:47;4.90;;;1.40;;
70337;SDS011;57757;53.198;19.646;2023-07-02T10:55:16;6.80;;;1.40;;
70337;SDS011;57757;53.198;19.646;2023-07-02T10:57:44;6.90;;;1.70;;
70337;SDS011;57757;53.198;19.646;2023-07-02T11:00:10;7.40;;;1.50;;
70337;SDS011;57757;53.198;19.646;2023-07-02T11:02:37;7.40;;;1.60;;
70337;SDS011;57757;53.198;19.646;2023-07-02T11:05:07;10.20;;;1.60;;
70337;SDS011;57757;53.198;19.646;2023-07-02T11:07:41;7.50;;;1.70;;
70337;SDS011;57757;53.198;19.646;2023-07-02T11:10:08;9.70;;;1.60;;
70337;SDS011;57757;53.198;19.646;2023-07-02T11:12:35;6.50;;;1.70;;
70337;SDS011;57757;53.198;19.646;2023-07-02T11:17:45;7.00;;;1.80;;
70337;SDS011;57757;53.198;19.646;2023-07-02T11:20:12;7.20;;;1.60;;
70337;SDS011;57757;53.198;19.646;2023-07-02T11:22:40;7.90;;;2.20;;
70337;SDS011;57757;53.198;19.646;2023-07-02T11:25:13;7.90;;;2.50;;
70337;SDS011;57757;53.198;19.646;2023-07-02T11:27:43;6.50;;;2.00;;
70337;SDS011;57757;53.198;19.646;2023-07-02T11:30:10;7.50;;;1.70;;
70337;SDS011;57757;53.198;19.646;2023-07-02T11:35:20;11.50;;;3.00;;
70337;SDS011;57757;53.198;19.646;2023-07-02T11:37:48;8.00;;;2.40;;
70337;SDS011;57757;53.198;19.646;2023-07-02T11:40:17;12.00;;;2.70;;
70337;SDS011;57757;53.198;19.646;2023-07-02T11:42:43;8.80;;;2.30;;
70337;SDS011;57757;53.198;19.646;2023-07-02T11:45:09;8.10;;;1.90;;
70337;SDS011;57757;53.198;19.646;2023-07-02T11:47:37;6.40;;;1.80;;
70337;SDS011;57757;53.198;19.646;2023-07-02T11:50:05;9.40;;;2.00;;
70337;SDS011;57757;53.198;19.646;2023-07-02T11:52:50;7.00;;;2.50;;
70337;SDS011;57757;53.198;19.646;2023-07-02T11:55:17;6.40;;;1.90;;
70337;SDS011;57757;53.198;19.646;2023-07-02T11:57:43;7.60;;;2.10;;
70337;SDS011;57757;53.198;19.646;2023-07-02T12:00:12;7.80;;;2.50;;
70337;SDS011;57757;53.198;19.646;2023-07-02T12:02:38;6.90;;;2.20;;
70337;SDS011;57757;53.198;19.646;2023-07-02T12:05:04;8.60;;;3.10;;
70337;SDS011;57757;53.198;19.646;2023-07-02T12:07:34;9.00;;;3.20;;
70337;SDS011;57757;53.198;19.646;2023-07-02T12:10:00;9.30;;;3.20;;
70337;SDS011;57757;53.198;19.646;2023-07-02T12:12:26;11.70;;;4.40;;
70337;SDS011;57757;53.198;19.646;2023-07-02T12:14:53;10.50;;;2.90;;
70337;SDS011;57757;53.198;19.646;2023-07-02T12:17:19;11.20;;;3.90;;
70337;SDS011;57757;53.198;19.646;2023-07-02T12:19:45;12.20;;;3.60;;
70337;SDS011;57757;53.198;19.646;2023-07-02T12:22:10;7.80;;;2.30;;
70337;SDS011;57757;53.198;19.646;2023-07-02T12:24:36;9.10;;;2.60;;
70337;SDS011;57757;53.198;19.646;2023-07-02T12:27:03;10.00;;;2.20;;
70337;SDS011;57757;53.198;19.646;2023-07-02T12:29:29;5.20;;;1.70;;
70337;SDS011;57757;53.198;19.646;2023-07-02T12:31:55;6.40;;;2.60;;
70337;SDS011;57757;53.198;19.646;2023-07-02T12:34:21;8.10;;;2.50;;
70337;SDS011;57757;53.198;19.646;2023-07-02T12:36:47;7.20;;;3.10;;
70337;SDS011;57757;53.198;19.646;2023-07-02T12:39:13;11.30;;;3.90;;
70337;SDS011;57757;53.198;19.646;2023-07-02T12:41:39;9.20;;;2.70;;
70337;SDS011;57757;53.198;19.646;2023-07-02T12:44:05;8.50;;;3.00;;
70337;SDS011;57757;53.198;19.646;2023-07-02T12:46:31;7.10;;;2.60;;
70337;SDS011;57757;53.198;19.646;2023-07-02T12:48:57;7.00;;;1.80;;
70337;SDS011;57757;53.198;19.646;2023-07-02T12:51:23;8.70;;;2.30;;
70337;SDS011;57757;53.198;19.646;2023-07-02T12:53:49;6.60;;;2.30;;
70337;SDS011;57757;53.198;19.646;2023-07-02T12:56:15;6.90;;;2.40;;
70337;SDS011;57757;53.198;19.646;2023-07-02T12:58:41;7.90;;;2.30;;
70337;SDS011;57757;53.198;19.646;2023-07-02T13:01:08;6.60;;;2.40;;
70337;SDS011;57757;53.198;19.646;2023-07-02T13:03:34;7.80;;;2.40;;
70337;SDS011;57757;53.198;19.646;2023-07-02T13:06:00;8.40;;;3.10;;
70337;SDS011;57757;53.198;19.646;2023-07-02T13:08:26;7.80;;;3.10;;
70337;SDS011;57757;53.198;19.646;2023-07-02T13:10:52;8.30;;;3.30;;
70337;SDS011;57757;53.198;19.646;2023-07-02T13:13:18;7.80;;;3.80;;
70337;SDS011;57757;53.198;19.646;2023-07-02T13:15:49;6.50;;;2.50;;
70337;SDS011;57757;53.198;19.646;2023-07-02T13:18:16;9.00;;;2.50;;
70337;SDS011;57757;53.198;19.646;2023-07-02T13:20:42;7.80;;;2.80;;
70337;SDS011;57757;53.198;19.646;2023-07-02T13:23:09;6.40;;;2.70;;
70337;SDS011;57757;53.198;19.646;2023-07-02T13:25:35;8.00;;;2.40;;
70337;SDS011;57757;53.198;19.646;2023-07-02T13:28:02;6.40;;;2.40;;
70337;SDS011;57757;53.198;19.646;2023-07-02T13:30:28;7.70;;;2.60;;
70337;SDS011;57757;53.198;19.646;2023-07-02T13:32:56;7.20;;;2.40;;
70337;SDS011;57757;53.198;19.646;2023-07-02T13:35:22;6.90;;;2.60;;
70337;SDS011;57757;53.198;19.646;2023-07-02T13:37:48;5.90;;;2.20;;
70337;SDS011;57757;53.198;19.646;2023-07-02T13:40:15;10.30;;;2.50;;
70337;SDS011;57757;53.198;19.646;2023-07-02T13:42:42;6.00;;;2.60;;
70337;SDS011;57757;53.198;19.646;2023-07-02T13:45:08;6.70;;;2.60;;
70337;SDS011;57757;53.198;19.646;2023-07-02T13:47:35;7.80;;;2.40;;
70337;SDS011;57757;53.198;19.646;2023-07-02T13:50:02;5.70;;;2.40;;
70337;SDS011;57757;53.198;19.646;2023-07-02T13:52:29;6.50;;;2.40;;
70337;SDS011;57757;53.198;19.646;2023-07-02T13:54:56;8.60;;;2.70;;
70337;SDS011;57757;53.198;19.646;2023-07-02T13:57:22;8.20;;;2.60;;
70337;SDS011;57757;53.198;19.646;2023-07-02T13:59:48;21.00;;;3.10;;
70337;SDS011;57757;53.198;19.646;2023-07-02T14:02:14;9.40;;;2.90;;
70337;SDS011;57757;53.198;19.646;2023-07-02T14:04:40;8.10;;;2.70;;
70337;SDS011;57757;53.198;19.646;2023-07-02T14:07:06;8.40;;;2.40;;
70337;SDS011;57757;53.198;19.646;2023-07-02T14:09:32;8.10;;;2.50;;
70337;SDS011;57757;53.198;19.646;2023-07-02T14:11:58;5.90;;;2.40;;
70337;SDS011;57757;53.198;19.646;2023-07-02T14:14:24;7.20;;;2.80;;
70337;SDS011;57757;53.198;19.646;2023-07-02T14:16:50;9.40;;;2.50;;
70337;SDS011;57757;53.198;19.646;2023-07-02T14:19:16;7.60;;;2.70;;
70337;SDS011;57757;53.198;19.646;2023-07-02T14:21:43;7.50;;;2.60;;
70337;SDS011;57757;53.198;19.646;2023-07-02T14:24:09;8.50;;;3.30;;
70337;SDS011;57757;53.198;19.646;2023-07-02T14:26:35;7.20;;;3.60;;
70337;SDS011;57757;53.198;19.646;2023-07-02T14:29:01;14.90;;;3.50;;
70337;SDS011;57757;53.198;19.646;2023-07-02T14:31:27;6.70;;;2.90;;
70337;SDS011;57757;53.198;19.646;2023-07-02T14:33:53;8.50;;;3.40;;
70337;SDS011;57757;53.198;19.646;2023-07-02T14:36:19;8.40;;;3.90;;
70337;SDS011;57757;53.198;19.646;2023-07-02T14:38:45;10.90;;;3.10;;
70337;SDS011;57757;53.198;19.646;2023-07-02T14:41:11;8.60;;;3.90;;
70337;SDS011;57757;53.198;19.646;2023-07-02T14:43:37;7.50;;;3.80;;
70337;SDS011;57757;53.198;19.646;2023-07-02T14:46:04;6.60;;;2.80;;
70337;SDS011;57757;53.198;19.646;2023-07-02T14:48:30;6.60;;;2.60;;
70337;SDS011;57757;53.198;19.646;2023-07-02T14:50:58;7.50;;;2.60;;
70337;SDS011;57757;53.198;19.646;2023-07-02T14:53:25;8.70;;;2.80;;
70337;SDS011;57757;53.198;19.646;2023-07-02T14:55:54;9.60;;;6.90;;
70337;SDS011;57757;53.198;19.646;2023-07-02T14:58:21;13.80;;;5.90;;
70337;SDS011;57757;53.198;19.646;2023-07-02T15:00:49;22.90;;;10.60;;